createdAt,value
2023-01-02T00:00:27.171Z,7.47
2023-01-02T00:02:53.888Z,7.47
2023-01-02T00:05:20.529Z,7.45
2023-01-02T00:07:47.048Z,7.46
2023-01-02T00:10:13.567Z,7.43
2023-01-02T00:12:40.215Z,7.42
2023-01-02T00:15:07.247Z,7.37
2023-01-02T00:17:33.787Z,7.38
2023-01-02T00:20:00.588Z,7.34
2023-01-02T00:22:27.092Z,7.33
2023-01-02T00:24:53.591Z,7.34
2023-01-02T00:27:20.189Z,7.34
2023-01-02T00:29:46.742Z,7.33
2023-01-02T00:32:13.472Z,7.30
2023-01-02T00:34:40.063Z,7.31
2023-01-02T00:37:06.561Z,7.30
2023-01-02T00:39:33.069Z,7.27
2023-01-02T00:41:59.645Z,7.25
2023-01-02T00:44:26.225Z,7.13
2023-01-02T00:46:52.867Z,7.12
2023-01-02T00:49:19.457Z,7.06
2023-01-02T00:51:45.951Z,7.04
2023-01-02T00:54:12.458Z,6.99
2023-01-02T00:56:39.005Z,6.97
2023-01-02T00:59:05.482Z,6.96
2023-01-02T01:01:32.200Z,6.90
2023-01-02T01:03:58.752Z,6.86
2023-01-02T01:06:25.311Z,6.89
2023-01-02T01:08:52.054Z,6.83
2023-01-02T01:11:18.661Z,6.80
2023-01-02T01:13:45.725Z,6.77
2023-01-02T01:16:15.503Z,6.73
2023-01-02T01:18:43.070Z,6.74
2023-01-02T01:21:18.687Z,6.72
2023-01-02T01:23:50.245Z,6.73
2023-01-02T01:26:16.851Z,6.67
2023-01-02T01:28:43.436Z,6.59
2023-01-02T01:31:13.098Z,6.55
2023-01-02T01:33:40.967Z,6.55
2023-01-02T01:36:13.748Z,6.49
2023-01-02T01:38:40.974Z,6.50
2023-01-02T01:41:09.128Z,6.47
2023-01-02T01:43:43.928Z,6.43
2023-01-02T01:46:48.560Z,6.42
2023-01-02T01:49:21.212Z,6.41
2023-01-02T01:51:54.587Z,6.36
2023-01-02T01:54:26.797Z,6.33
2023-01-02T01:56:58.775Z,6.27
2023-01-02T01:59:25.711Z,6.24
2023-01-02T02:01:52.535Z,6.27
2023-01-02T02:04:22.577Z,6.18
2023-01-02T02:06:50.938Z,6.20
2023-01-02T02:09:22.837Z,6.18
2023-01-02T02:11:49.738Z,6.21
2023-01-02T02:14:16.426Z,6.14
2023-01-02T02:16:56.748Z,6.14
2023-01-02T02:19:45.000Z,6.10
2023-01-02T02:22:29.588Z,6.10
2023-01-02T02:25:41.496Z,6.09
2023-01-02T02:28:41.848Z,6.11
2023-01-02T02:31:32.754Z,6.09
2023-01-02T02:34:13.239Z,6.09
2023-01-02T02:36:41.932Z,6.12
2023-01-02T02:39:33.965Z,6.13
2023-01-02T02:42:12.175Z,6.20
2023-01-02T02:44:50.606Z,6.17
2023-01-02T02:47:26.510Z,6.19
2023-01-02T02:50:11.261Z,6.22
2023-01-02T02:52:59.347Z,6.21
2023-01-02T02:55:47.812Z,6.22
2023-01-02T02:58:15.997Z,6.24
2023-01-02T03:00:42.506Z,6.26
2023-01-02T03:03:20.526Z,6.24
2023-01-02T03:06:07.972Z,6.21
2023-01-02T03:09:04.175Z,6.25
2023-01-02T03:12:08.788Z,6.29
2023-01-02T03:14:57.391Z,6.27
2023-01-02T03:17:49.172Z,6.26
2023-01-02T03:20:18.895Z,6.26
2023-01-02T03:22:50.742Z,6.29
2023-01-02T03:25:18.243Z,6.32
2023-01-02T03:27:46.610Z,6.34
2023-01-02T03:30:21.243Z,6.31
2023-01-02T03:32:54.481Z,6.35
2023-01-02T03:35:35.578Z,6.35
2023-01-02T03:38:05.507Z,6.40
2023-01-02T03:40:37.800Z,6.40
2023-01-02T03:43:13.745Z,6.37
2023-01-02T03:45:46.165Z,6.42
2023-01-02T03:48:38.443Z,6.42
2023-01-02T03:51:05.079Z,6.43
2023-01-02T03:53:34.489Z,6.44
2023-01-02T03:56:22.458Z,6.46
2023-01-02T03:59:13.030Z,6.45
2023-01-02T04:01:43.270Z,6.46
2023-01-02T04:04:13.695Z,6.47
2023-01-02T04:06:46.117Z,6.49
2023-01-02T04:09:18.600Z,6.50
2023-01-02T04:11:50.701Z,6.50
2023-01-02T04:14:24.021Z,6.58
2023-01-02T04:16:53.483Z,6.61
2023-01-02T04:19:31.616Z,6.61
2023-01-02T04:22:02.363Z,6.61
2023-01-02T04:24:38.568Z,6.61
2023-01-02T04:27:13.809Z,6.61
2023-01-02T04:29:41.018Z,6.61
2023-01-02T04:32:31.585Z,6.61
2023-01-02T04:35:00.477Z,6.63
2023-01-02T04:37:35.426Z,6.62
2023-01-02T04:40:14.893Z,6.61
2023-01-02T04:42:41.538Z,6.60
2023-01-02T04:45:08.737Z,6.62
2023-01-02T04:47:35.245Z,6.61
2023-01-02T04:50:01.962Z,6.60
2023-01-02T04:52:32.061Z,6.57
2023-01-02T04:55:01.873Z,6.50
2023-01-02T04:57:28.383Z,6.44
2023-01-02T04:59:54.934Z,6.41
2023-01-02T05:02:21.532Z,6.35
2023-01-02T05:04:48.105Z,6.33
2023-01-02T05:07:14.635Z,6.26
2023-01-02T05:09:41.167Z,6.21
2023-01-02T05:12:07.743Z,6.17
2023-01-02T05:14:34.232Z,6.11
2023-01-02T05:17:00.818Z,6.07
2023-01-02T05:19:27.351Z,6.03
2023-01-02T05:22:12.459Z,6.00
2023-01-02T05:24:38.998Z,5.92
2023-01-02T05:27:05.537Z,5.91
2023-01-02T05:29:32.076Z,5.83
2023-01-02T05:31:58.641Z,5.82
2023-01-02T05:34:25.343Z,5.79
2023-01-02T05:36:51.997Z,5.75
2023-01-02T05:39:18.515Z,5.74
2023-01-02T05:41:45.081Z,5.68
2023-01-02T05:44:11.834Z,5.67
2023-01-02T05:46:39.473Z,5.62
2023-01-02T05:49:07.121Z,5.58
2023-01-02T05:51:34.099Z,5.54
2023-01-02T05:54:00.988Z,5.51
2023-01-02T05:56:28.787Z,5.45
2023-01-02T05:58:55.779Z,5.42
2023-01-02T06:01:25.320Z,5.42
2023-01-02T06:03:57.555Z,5.44
2023-01-02T06:06:38.886Z,5.40
2023-01-02T06:09:07.222Z,5.39
2023-01-02T06:11:36.191Z,5.38
2023-01-02T06:14:02.707Z,5.36
2023-01-02T06:16:29.271Z,5.35
2023-01-02T06:18:56.170Z,5.33
2023-01-02T06:21:23.014Z,5.26
2023-01-02T06:23:55.048Z,5.24
2023-01-02T06:26:22.254Z,5.22
2023-01-02T06:28:54.114Z,5.16
2023-01-02T06:31:23.656Z,5.11
2023-01-02T06:33:57.479Z,5.10
2023-01-02T06:36:24.899Z,5.01
2023-01-02T06:38:51.740Z,4.97
2023-01-02T06:41:18.458Z,4.96
2023-01-02T06:43:52.208Z,4.94
2023-01-02T06:46:21.898Z,4.88
2023-01-02T06:48:48.732Z,4.87
2023-01-02T06:51:18.124Z,4.84
2023-01-02T06:53:45.398Z,4.81
2023-01-02T06:56:13.932Z,4.78
2023-01-02T06:58:40.845Z,4.79
2023-01-02T07:01:09.175Z,4.78
2023-01-02T07:03:36.101Z,4.74
2023-01-02T07:06:04.660Z,4.73
2023-01-02T07:08:32.211Z,4.75
2023-01-02T07:11:15.296Z,4.73
2023-01-02T07:13:43.303Z,4.72
2023-01-02T07:16:12.908Z,4.70
2023-01-02T07:18:39.674Z,4.68
2023-01-02T07:21:07.848Z,4.59
2023-01-02T07:23:34.583Z,4.57
2023-01-02T07:26:02.759Z,4.59
2023-01-02T07:28:29.983Z,4.60
2023-01-02T07:31:00.965Z,4.56
2023-01-02T07:33:32.012Z,4.51
2023-01-02T07:36:04.114Z,4.51
2023-01-02T07:38:30.876Z,4.47
2023-01-02T07:40:57.441Z,4.42
2023-01-02T07:43:24.308Z,4.40
2023-01-02T07:45:51.324Z,4.37
2023-01-02T07:48:18.345Z,4.36
2023-01-02T07:50:45.614Z,4.31
2023-01-02T07:53:12.196Z,4.29
2023-01-02T07:55:38.836Z,4.27
2023-01-02T07:58:05.332Z,4.24
2023-01-02T08:00:31.854Z,4.21
2023-01-02T08:02:58.430Z,4.23
2023-01-02T08:05:24.936Z,4.17
2023-01-02T08:07:52.145Z,4.16
2023-01-02T08:10:18.656Z,4.16
2023-01-02T08:12:45.384Z,4.14
2023-01-02T08:15:11.898Z,4.09
2023-01-02T08:17:38.580Z,4.09
2023-01-02T08:20:08.288Z,4.07
2023-01-02T08:22:35.240Z,4.04
2023-01-02T08:25:02.394Z,3.98
2023-01-02T08:27:29.179Z,3.99
2023-01-02T08:29:55.767Z,3.96
2023-01-02T08:32:22.333Z,3.91
2023-01-02T08:34:48.864Z,3.95
2023-01-02T08:37:15.398Z,3.93
2023-01-02T08:39:41.910Z,3.89
2023-01-02T08:42:08.797Z,3.90
2023-01-02T08:44:38.070Z,3.90
2023-01-02T08:47:07.858Z,3.90
2023-01-02T08:49:34.387Z,3.86
2023-01-02T08:52:00.931Z,3.83
2023-01-02T08:54:27.611Z,3.80
2023-01-02T08:56:54.216Z,3.78
2023-01-02T08:59:24.504Z,3.74
2023-01-02T09:01:52.035Z,3.71
2023-01-02T09:04:19.394Z,3.70
2023-01-02T09:06:46.852Z,3.66
2023-01-02T09:09:15.533Z,3.64
2023-01-02T09:11:50.292Z,3.63
2023-01-02T09:14:19.092Z,3.61
2023-01-02T09:16:45.600Z,3.62
2023-01-02T09:19:12.236Z,3.57
2023-01-02T09:21:38.737Z,3.60
2023-01-02T09:24:06.255Z,3.56
2023-01-02T09:26:32.770Z,3.62
2023-01-02T09:28:59.332Z,3.66
2023-01-02T09:31:26.015Z,3.71
2023-01-02T09:33:53.825Z,3.77
2023-01-02T09:36:21.315Z,3.80
2023-01-02T09:38:59.020Z,3.85
2023-01-02T09:41:30.920Z,3.94
2023-01-02T09:44:03.503Z,3.95
2023-01-02T09:46:50.250Z,4.02
2023-01-02T09:49:29.601Z,4.03
2023-01-02T09:51:56.217Z,4.02
2023-01-02T09:54:28.250Z,4.06
2023-01-02T09:57:36.143Z,4.07
2023-01-02T10:00:12.842Z,4.05
2023-01-02T10:02:48.094Z,4.08
2023-01-02T10:05:20.419Z,4.12
2023-01-02T10:07:46.853Z,4.09
2023-01-02T10:10:38.403Z,4.11
2023-01-02T10:13:25.939Z,4.11
2023-01-02T10:16:02.519Z,4.13
2023-01-02T10:18:38.392Z,4.16
2023-01-02T10:21:13.535Z,4.19
2023-01-02T10:23:45.131Z,4.24
2023-01-02T10:26:15.843Z,4.27
2023-01-02T10:29:00.116Z,4.30
2023-01-02T10:31:51.503Z,4.35
2023-01-02T10:34:20.681Z,4.40
2023-01-02T10:36:48.755Z,4.47
2023-01-02T10:39:20.245Z,4.52
2023-01-02T10:41:50.349Z,4.55
2023-01-02T10:44:35.571Z,4.61
2023-01-02T10:47:22.960Z,4.65
2023-01-02T10:49:52.222Z,4.68
2023-01-02T10:52:26.339Z,4.73
2023-01-02T10:54:59.672Z,4.76
2023-01-02T10:57:40.113Z,4.80
2023-01-02T11:00:27.992Z,4.83
2023-01-02T11:03:00.583Z,4.86
2023-01-02T11:05:30.583Z,4.91
2023-01-02T11:07:58.571Z,4.97
2023-01-02T11:10:27.161Z,5.02
2023-01-02T11:12:53.998Z,5.06
2023-01-02T11:15:34.568Z,5.09
2023-01-02T11:18:11.013Z,5.14
2023-01-02T11:20:38.017Z,5.18
2023-01-02T11:23:05.999Z,5.23
2023-01-02T11:25:38.517Z,5.26
2023-01-02T11:28:05.537Z,5.32
2023-01-02T11:30:42.603Z,5.36
2023-01-02T11:33:24.115Z,5.45
2023-01-02T11:35:53.211Z,5.48
2023-01-02T11:38:29.684Z,5.56
2023-01-02T11:41:02.347Z,5.62
2023-01-02T11:43:52.107Z,5.69
2023-01-02T11:46:36.151Z,5.76
2023-01-02T11:49:16.181Z,5.85
2023-01-02T11:51:42.948Z,5.91
2023-01-02T11:54:19.244Z,5.99
2023-01-02T11:56:46.320Z,6.06
2023-01-02T11:59:19.001Z,6.13
2023-01-02T12:02:26.552Z,6.23
2023-01-02T12:04:53.106Z,6.33
2023-01-02T12:08:01.241Z,6.46
2023-01-02T12:10:27.889Z,6.58
2023-01-02T12:13:00.187Z,6.68
2023-01-02T12:15:43.814Z,6.80
2023-01-02T12:18:25.636Z,6.91
2023-01-02T12:21:10.617Z,7.02
2023-01-02T12:24:01.004Z,7.12
2023-01-02T12:26:34.649Z,7.21
2023-01-02T12:29:46.754Z,7.33
2023-01-02T12:32:41.111Z,7.42
2023-01-02T12:35:29.090Z,7.49
2023-01-02T12:37:58.299Z,7.57
2023-01-02T12:40:44.295Z,7.61
2023-01-02T12:43:29.340Z,7.70
2023-01-02T12:45:55.824Z,7.74
2023-01-02T12:48:55.638Z,7.82
2023-01-02T12:51:50.841Z,7.89
2023-01-02T12:54:51.816Z,7.95
2023-01-02T12:57:42.301Z,8.01
2023-01-02T13:00:44.243Z,8.09
2023-01-02T13:03:29.500Z,8.15
2023-01-02T13:06:04.996Z,8.18
2023-01-02T13:09:03.999Z,8.27
2023-01-02T13:11:54.273Z,8.33
2023-01-02T13:14:25.903Z,8.37
2023-01-02T13:17:28.629Z,8.45
2023-01-02T13:20:01.189Z,8.48
2023-01-02T13:23:05.825Z,8.52
2023-01-02T13:25:33.666Z,8.58
2023-01-02T13:28:00.444Z,8.63
2023-01-02T13:30:45.386Z,8.67
2023-01-02T13:33:18.704Z,8.71
2023-01-02T13:35:45.222Z,8.75
2023-01-02T13:38:15.076Z,8.74
2023-01-02T13:40:41.944Z,8.77
2023-01-02T13:43:16.742Z,8.78
2023-01-02T13:45:47.663Z,8.78
2023-01-02T13:48:22.518Z,8.77
2023-01-02T13:51:01.182Z,8.76
2023-01-02T13:53:35.590Z,8.76
2023-01-02T13:56:09.834Z,8.73
2023-01-02T13:58:57.720Z,8.72
2023-01-02T14:01:24.709Z,8.68
2023-01-02T14:04:09.628Z,8.66
2023-01-02T14:06:41.719Z,8.60
2023-01-02T14:09:14.188Z,8.58
2023-01-02T14:11:56.946Z,8.53
2023-01-02T14:14:33.379Z,8.51
2023-01-02T14:17:24.505Z,8.46
2023-01-02T14:20:18.623Z,8.42
2023-01-02T14:23:00.929Z,8.36
2023-01-02T14:25:28.406Z,8.32
2023-01-02T14:28:01.242Z,8.29
2023-01-02T14:30:33.768Z,8.25
2023-01-02T14:33:01.724Z,8.20
2023-01-02T14:35:38.722Z,8.16
2023-01-02T14:38:15.924Z,8.11
2023-01-02T14:40:44.526Z,8.10
2023-01-02T14:43:31.785Z,8.06
2023-01-02T14:46:04.490Z,7.98
2023-01-02T14:48:39.706Z,7.95
2023-01-02T14:51:16.205Z,7.90
2023-01-02T14:53:52.884Z,7.85
2023-01-02T14:56:28.357Z,7.81
2023-01-02T14:58:56.497Z,7.74
2023-01-02T15:01:43.674Z,7.69
2023-01-02T15:04:27.949Z,7.63
2023-01-02T15:07:26.518Z,7.57
2023-01-02T15:10:18.379Z,7.49
2023-01-02T15:13:09.203Z,7.42
2023-01-02T15:15:45.594Z,7.36
2023-01-02T15:18:21.766Z,7.28
2023-01-02T15:20:53.995Z,7.21
2023-01-02T15:23:25.782Z,7.15
2023-01-02T15:26:32.606Z,7.08
2023-01-02T15:28:40.581Z,7.07
2023-01-02T15:31:15.179Z,7.06
2023-01-02T15:33:42.105Z,7.05
2023-01-02T15:36:19.596Z,7.05
2023-01-02T15:38:47.504Z,7.04
2023-01-02T15:41:18.636Z,7.05
2023-01-02T15:44:05.139Z,7.03
2023-01-02T15:46:31.969Z,7.03
2023-01-02T15:49:00.111Z,7.02
2023-01-02T15:51:39.817Z,7.00
2023-01-02T15:54:12.617Z,7.00
2023-01-02T15:56:40.343Z,6.99
2023-01-02T15:59:23.811Z,6.97
2023-01-02T16:01:50.598Z,6.96
2023-01-02T16:04:26.585Z,6.92
2023-01-02T16:06:54.300Z,6.87
2023-01-02T16:09:26.411Z,6.79
2023-01-02T16:11:59.041Z,6.71
2023-01-02T16:14:57.630Z,6.64
2023-01-02T16:17:31.515Z,6.55
2023-01-02T16:20:04.961Z,6.45
2023-01-02T16:22:40.261Z,6.45
2023-01-02T16:25:17.041Z,6.35
2023-01-02T16:28:36.032Z,6.26
2023-01-02T16:31:13.932Z,6.14
2023-01-02T16:33:42.101Z,6.04
2023-01-02T16:36:12.993Z,5.98
2023-01-02T16:39:02.571Z,5.92
2023-01-02T16:41:36.784Z,5.80
2023-01-02T16:44:12.329Z,5.73
2023-01-02T16:46:39.895Z,5.67
2023-01-02T16:49:07.562Z,5.62
2023-01-02T16:51:34.622Z,5.53
2023-01-02T16:54:01.187Z,5.47
2023-01-02T16:56:27.698Z,5.43
2023-01-02T16:58:54.451Z,5.38
2023-01-02T17:01:22.794Z,5.35
2023-01-02T17:03:49.496Z,5.29
2023-01-02T17:06:19.068Z,5.25
2023-01-02T17:08:45.786Z,5.20
2023-01-02T17:11:21.519Z,5.14
2023-01-02T17:13:49.003Z,5.08
2023-01-02T17:16:16.495Z,5.04
2023-01-02T17:18:43.530Z,5.01
2023-01-02T17:21:10.143Z,4.95
2023-01-02T17:23:37.404Z,4.91
2023-01-02T17:26:04.143Z,4.86
2023-01-02T17:28:30.807Z,4.81
2023-01-02T17:30:57.331Z,4.75
2023-01-02T17:33:23.932Z,4.75
2023-01-02T17:35:53.015Z,4.67
2023-01-02T17:38:19.661Z,4.63
2023-01-02T17:40:46.435Z,4.59
2023-01-02T17:43:12.975Z,4.55
2023-01-02T17:45:42.402Z,4.53
2023-01-02T17:48:12.273Z,4.48
2023-01-02T17:50:40.283Z,4.47
2023-01-02T17:53:07.196Z,4.43
2023-01-02T17:55:33.809Z,4.39
2023-01-02T17:58:03.191Z,4.35
2023-01-02T18:00:29.668Z,4.32
2023-01-02T18:02:56.291Z,4.27
2023-01-02T18:05:23.244Z,4.25
2023-01-02T18:07:50.092Z,4.22
2023-01-02T18:10:20.443Z,4.18
2023-01-02T18:12:49.472Z,4.17
2023-01-02T18:15:18.034Z,4.15
2023-01-02T18:17:44.615Z,4.12
2023-01-02T18:20:18.067Z,4.08
2023-01-02T18:22:49.537Z,4.06
2023-01-02T18:25:27.128Z,4.01
2023-01-02T18:28:00.510Z,3.98
2023-01-02T18:30:27.892Z,3.97
2023-01-02T18:33:10.468Z,3.94
2023-01-02T18:38:36.570Z,3.86
2023-01-02T18:41:26.185Z,3.84
2023-01-02T18:43:57.693Z,3.80
2023-01-02T18:47:03.370Z,3.76
2023-01-02T18:49:31.038Z,3.72
2023-01-02T18:52:24.285Z,3.68
2023-01-02T18:55:01.708Z,3.66
2023-01-02T18:57:39.261Z,3.59
2023-01-02T19:00:21.254Z,3.58
2023-01-02T19:03:01.979Z,3.55
2023-01-02T19:05:30.014Z,3.54
2023-01-02T19:08:01.135Z,3.53
2023-01-02T19:10:37.251Z,3.53
2023-01-02T19:13:18.205Z,3.54
2023-01-02T19:15:46.413Z,3.51
2023-01-02T19:18:36.105Z,3.51
2023-01-02T19:21:08.493Z,3.48
2023-01-02T19:23:59.050Z,3.48
2023-01-02T19:26:50.079Z,3.43
2023-01-02T19:29:23.217Z,3.41
2023-01-02T19:32:14.126Z,3.39
2023-01-02T19:34:43.252Z,3.36
2023-01-02T19:37:12.749Z,3.34
2023-01-02T19:39:48.515Z,3.33
2023-01-02T19:42:21.709Z,3.29
2023-01-02T19:44:52.127Z,3.27
2023-01-02T19:47:20.719Z,3.22
2023-01-02T19:49:47.806Z,3.22
2023-01-02T19:52:16.052Z,3.20
2023-01-02T19:54:43.254Z,3.18
2023-01-02T19:57:11.458Z,3.15
2023-01-02T19:59:43.551Z,3.11
2023-01-02T20:02:10.790Z,3.02
2023-01-02T20:04:37.439Z,2.99
2023-01-02T20:07:04.183Z,2.99
2023-01-02T20:09:31.956Z,2.99
2023-01-02T20:12:17.274Z,2.96
2023-01-02T20:14:43.873Z,2.91
2023-01-02T20:17:10.508Z,2.89
2023-01-02T20:19:37.621Z,2.88
2023-01-02T20:22:04.939Z,2.81
2023-01-02T20:24:31.516Z,2.81
2023-01-02T20:27:01.708Z,2.81
2023-01-02T20:29:29.517Z,2.80
2023-01-02T20:31:56.489Z,2.78
2023-01-02T20:34:23.185Z,2.72
2023-01-02T20:36:49.703Z,2.73
2023-01-02T20:39:16.779Z,2.74
2023-01-02T20:41:43.816Z,2.73
2023-01-02T20:44:12.277Z,2.71
2023-01-02T20:46:39.148Z,2.69
2023-01-02T20:49:06.672Z,2.67
2023-01-02T20:51:35.193Z,2.67
2023-01-02T20:54:03.167Z,2.65
2023-01-02T20:56:29.985Z,2.62
2023-01-02T20:58:56.921Z,2.57
2023-01-02T21:01:24.716Z,2.57
2023-01-02T21:03:51.489Z,2.56
2023-01-02T21:06:18.143Z,2.51
2023-01-02T21:08:44.760Z,2.48
2023-01-02T21:11:12.026Z,2.49
2023-01-02T21:13:38.612Z,2.49
2023-01-02T21:16:05.288Z,2.50
2023-01-02T21:18:34.395Z,2.44
2023-01-02T21:21:06.997Z,2.44
2023-01-02T21:23:36.792Z,2.42
2023-01-02T21:26:05.217Z,2.39
2023-01-02T21:28:32.086Z,2.39
2023-01-02T21:30:58.917Z,2.37
2023-01-02T21:33:26.629Z,2.34
2023-01-02T21:35:55.701Z,2.34
2023-01-02T21:38:23.547Z,2.31
2023-01-02T21:40:50.276Z,2.31
2023-01-02T21:43:16.778Z,2.30
2023-01-02T21:45:43.534Z,2.35
2023-01-02T21:48:10.199Z,2.31
2023-01-02T21:50:36.928Z,2.28
2023-01-02T21:53:03.940Z,2.27
2023-01-02T21:55:30.566Z,2.27
2023-01-02T21:58:14.717Z,2.26
2023-01-02T22:00:42.285Z,2.19
2023-01-02T22:03:09.189Z,2.21
2023-01-02T22:05:35.869Z,2.22
2023-01-02T22:08:02.504Z,2.19
2023-01-02T22:10:29.041Z,2.17
2023-01-02T22:12:55.621Z,2.17
2023-01-02T22:15:22.519Z,2.11
2023-01-02T22:17:49.132Z,2.07
2023-01-02T22:20:16.055Z,2.06
2023-01-02T22:22:42.729Z,2.05
2023-01-02T22:25:09.897Z,2.04
2023-01-02T22:27:36.797Z,2.04
2023-01-02T22:30:25.799Z,2.01
2023-01-02T22:32:51.823Z,2.00
2023-01-02T22:35:18.661Z,2.00
2023-01-02T22:37:45.239Z,2.01
2023-01-02T22:40:12.184Z,1.98
2023-01-02T22:43:03.912Z,2.02
2023-01-02T22:45:52.655Z,1.98
2023-01-02T22:48:25.484Z,1.92
2023-01-02T22:50:55.136Z,1.92
2023-01-02T22:53:27.580Z,1.89
2023-01-02T22:55:54.908Z,1.89
2023-01-02T22:58:22.242Z,1.87
2023-01-02T23:00:56.268Z,1.85
2023-01-02T23:03:22.872Z,1.83
2023-01-02T23:05:49.409Z,1.81
2023-01-02T23:08:15.973Z,1.78
2023-01-02T23:10:42.658Z,1.75
2023-01-02T23:13:09.288Z,1.76
2023-01-02T23:15:35.814Z,1.73
2023-01-02T23:18:21.099Z,1.74
2023-01-02T23:20:47.665Z,1.71
2023-01-02T23:23:14.207Z,1.70
2023-01-02T23:25:43.295Z,1.66
2023-01-02T23:28:10.032Z,1.65
2023-01-02T23:30:41.064Z,1.65
2023-01-02T23:33:07.552Z,1.61
2023-01-02T23:35:34.153Z,1.57
2023-01-02T23:38:00.723Z,1.55
2023-01-02T23:40:33.889Z,1.57
2023-01-02T23:43:00.827Z,1.55
2023-01-02T23:45:27.504Z,1.56
2023-01-02T23:47:54.106Z,1.52
2023-01-02T23:50:20.635Z,1.54
2023-01-02T23:52:47.266Z,1.53
2023-01-02T23:55:13.940Z,1.50
2023-01-02T23:57:40.613Z,1.51
